createdAt,value
2023-03-16T00:01:07.933Z,6.30
2023-03-16T00:03:36.309Z,6.25
2023-03-16T00:06:03.643Z,5.75
2023-03-16T00:08:30.384Z,6.07
2023-03-16T00:10:57.032Z,6.25
2023-03-16T00:13:24.908Z,4.57
2023-03-16T00:15:56.661Z,6.18
2023-03-16T00:18:28.772Z,7.03
2023-03-16T00:20:58.185Z,7.07
2023-03-16T00:23:28.845Z,6.57
2023-03-16T00:26:00.330Z,7.60
2023-03-16T00:28:30.036Z,7.55
2023-03-16T00:30:59.060Z,8.38
2023-03-16T00:33:26.480Z,7.82
2023-03-16T00:38:32.804Z,7.95
2023-03-16T00:40:59.475Z,8.30
2023-03-16T00:43:27.272Z,7.65
2023-03-16T00:46:06.570Z,8.20
2023-03-16T00:48:40.054Z,7.70
2023-03-16T00:51:09.109Z,8.25
2023-03-16T00:53:36.586Z,7.32
2023-03-16T00:56:04.633Z,7.65
2023-03-16T00:58:36.509Z,7.80
2023-03-16T01:01:09.074Z,8.60
2023-03-16T01:03:35.985Z,8.25
2023-03-16T01:06:10.107Z,7.13
2023-03-16T01:08:38.247Z,8.95
2023-03-16T01:11:11.163Z,7.82
2023-03-16T01:13:39.620Z,7.65
2023-03-16T01:16:06.750Z,8.80
2023-03-16T01:18:34.204Z,8.50
2023-03-16T01:21:02.076Z,8.00
2023-03-16T01:23:30.188Z,8.27
2023-03-16T01:25:57.716Z,8.10
2023-03-16T01:28:26.426Z,9.15
2023-03-16T01:30:57.459Z,9.32
2023-03-16T01:33:26.612Z,7.90
2023-03-16T01:35:59.372Z,8.52
2023-03-16T01:38:29.827Z,7.90
2023-03-16T01:40:56.689Z,8.02
2023-03-16T01:43:29.328Z,8.13
2023-03-16T01:46:05.992Z,8.80
2023-03-16T01:48:56.442Z,9.73
2023-03-16T01:51:47.045Z,8.40
2023-03-16T01:54:26.948Z,9.15
2023-03-16T01:57:06.132Z,9.20
2023-03-16T01:59:44.226Z,9.93
2023-03-16T02:02:13.803Z,9.13
2023-03-16T02:04:58.561Z,10.23
2023-03-16T02:07:28.591Z,10.07
2023-03-16T02:10:00.800Z,10.23
2023-03-16T02:12:28.962Z,10.73
2023-03-16T02:14:57.500Z,9.85
2023-03-16T02:17:27.686Z,6.65
2023-03-16T02:20:10.152Z,9.70
2023-03-16T02:22:42.678Z,9.57
2023-03-16T02:25:10.617Z,9.68
2023-03-16T02:28:00.587Z,8.73
2023-03-16T02:30:28.108Z,8.00
2023-03-16T02:33:01.609Z,7.70
2023-03-16T02:35:28.392Z,8.55
2023-03-16T02:37:55.129Z,6.80
2023-03-16T02:40:28.298Z,8.82
2023-03-16T02:43:05.368Z,8.68
2023-03-16T02:45:44.483Z,8.02
2023-03-16T02:48:19.146Z,8.75
2023-03-16T02:50:48.542Z,8.75
2023-03-16T02:53:16.233Z,8.45
2023-03-16T02:58:09.858Z,8.50
2023-03-16T03:00:36.583Z,8.90
2023-03-16T03:03:05.185Z,9.85
2023-03-16T03:05:32.239Z,9.70
2023-03-16T03:07:59.240Z,9.07
2023-03-16T03:10:27.239Z,8.98
2023-03-16T03:12:54.295Z,8.73
2023-03-16T03:15:21.815Z,8.60
2023-03-16T03:18:00.766Z,8.27
2023-03-16T03:20:30.786Z,7.78
2023-03-16T03:22:57.720Z,7.40
2023-03-16T03:25:24.881Z,7.18
2023-03-16T03:27:56.778Z,7.18
2023-03-16T03:30:25.562Z,7.97
2023-03-16T03:32:52.591Z,7.30
2023-03-16T03:35:21.418Z,7.53
2023-03-16T03:37:48.257Z,7.47
2023-03-16T03:40:18.056Z,7.03
2023-03-16T03:42:48.089Z,7.65
2023-03-16T03:45:15.486Z,7.57
2023-03-16T03:47:43.622Z,7.13
2023-03-16T03:50:15.624Z,7.25
2023-03-16T03:52:55.838Z,7.00
2023-03-16T03:55:22.609Z,4.82
2023-03-16T03:57:49.367Z,6.85
2023-03-16T04:00:20.381Z,6.53
2023-03-16T04:02:47.557Z,6.43
2023-03-16T04:05:28.186Z,6.40
2023-03-16T04:07:57.471Z,6.20
2023-03-16T04:10:26.097Z,6.65
2023-03-16T04:12:53.271Z,6.18
2023-03-16T04:15:20.225Z,7.47
2023-03-16T04:18:07.177Z,6.80
2023-03-16T04:20:34.034Z,6.10
2023-03-16T04:23:01.132Z,6.97
2023-03-16T04:25:30.541Z,6.03
2023-03-16T04:27:58.423Z,7.03
2023-03-16T04:30:30.861Z,6.35
2023-03-16T04:33:07.650Z,7.40
2023-03-16T04:35:34.403Z,7.47
2023-03-16T04:38:02.283Z,7.28
2023-03-16T04:40:38.374Z,5.50
2023-03-16T04:43:13.847Z,7.05
2023-03-16T04:45:42.020Z,5.95
2023-03-16T04:50:37.817Z,6.10
2023-03-16T04:53:04.913Z,6.28
2023-03-16T04:57:59.283Z,7.65
2023-03-16T05:00:29.057Z,7.45
2023-03-16T05:03:02.787Z,7.30
2023-03-16T05:05:29.995Z,9.82
2023-03-16T05:07:57.077Z,12.75
2023-03-16T05:10:27.310Z,11.57
2023-03-16T05:12:54.380Z,9.95
2023-03-16T05:15:21.334Z,12.52
2023-03-16T05:17:58.002Z,14.75
2023-03-16T05:20:25.788Z,9.10
2023-03-16T05:22:55.464Z,10.63
2023-03-16T05:25:34.937Z,10.38
2023-03-16T05:28:05.464Z,11.02
2023-03-16T05:30:38.614Z,10.27
2023-03-16T05:33:09.698Z,10.50
2023-03-16T05:35:36.600Z,10.75
2023-03-16T05:38:07.534Z,10.95
2023-03-16T05:40:37.502Z,11.20
2023-03-16T05:43:30.853Z,10.70
2023-03-16T05:45:58.899Z,9.43
2023-03-16T05:48:25.783Z,11.02
2023-03-16T05:50:55.561Z,11.40
2023-03-16T05:53:28.810Z,11.77
2023-03-16T05:56:02.702Z,12.02
2023-03-16T05:58:34.091Z,11.75
2023-03-16T06:01:05.713Z,12.43
2023-03-16T06:03:32.424Z,11.43
2023-03-16T06:06:02.024Z,11.77
2023-03-16T06:08:33.346Z,11.50
2023-03-16T06:11:07.790Z,10.75
2023-03-16T06:16:02.134Z,11.77
2023-03-16T06:18:29.248Z,12.82
2023-03-16T06:23:24.144Z,10.98
2023-03-16T06:25:54.497Z,11.73
2023-03-16T06:28:24.391Z,12.05
2023-03-16T06:30:55.561Z,11.50
2023-03-16T06:33:24.873Z,10.93
2023-03-16T06:35:51.873Z,11.07
2023-03-16T06:38:29.119Z,7.65
2023-03-16T06:41:02.034Z,8.27
2023-03-16T06:43:29.734Z,9.45
2023-03-16T06:45:56.557Z,5.57
2023-03-16T06:48:23.292Z,9.00
2023-03-16T06:50:50.112Z,9.95
2023-03-16T06:53:22.137Z,9.77
2023-03-16T06:55:49.246Z,9.60
2023-03-16T06:58:32.238Z,8.75
2023-03-16T07:01:04.767Z,9.10
2023-03-16T07:03:31.805Z,8.52
2023-03-16T07:06:05.956Z,8.13
2023-03-16T07:08:32.662Z,7.65
2023-03-16T07:10:59.587Z,8.57
2023-03-16T07:13:26.335Z,7.55
2023-03-16T07:15:54.385Z,8.23
2023-03-16T07:18:25.779Z,7.45
2023-03-16T07:20:53.651Z,7.95
2023-03-16T07:23:22.298Z,9.65
2023-03-16T07:25:49.024Z,9.90
2023-03-16T07:28:18.796Z,8.40
2023-03-16T07:31:02.410Z,8.25
2023-03-16T07:33:36.007Z,8.43
2023-03-16T07:36:06.010Z,9.23
2023-03-16T07:38:36.971Z,9.27
2023-03-16T07:41:03.968Z,6.00
2023-03-16T07:43:30.866Z,8.18
2023-03-16T07:45:57.672Z,5.70
2023-03-16T07:48:25.982Z,7.05
2023-03-16T07:50:59.604Z,7.28
2023-03-16T07:53:27.138Z,7.38
2023-03-16T07:56:11.324Z,7.28
2023-03-16T07:58:39.852Z,8.00
2023-03-16T08:01:06.805Z,7.53
2023-03-16T08:03:33.633Z,8.63
2023-03-16T08:06:01.198Z,7.03
2023-03-16T08:08:27.975Z,7.00
2023-03-16T08:10:56.560Z,5.13
2023-03-16T08:13:30.104Z,6.25
2023-03-16T08:16:01.844Z,6.13
2023-03-16T08:18:39.392Z,5.80
2023-03-16T08:23:33.936Z,6.32
2023-03-16T08:28:28.056Z,5.97
2023-03-16T08:30:58.330Z,6.13
2023-03-16T08:33:38.609Z,6.30
2023-03-16T08:36:07.660Z,5.85
2023-03-16T08:38:34.849Z,6.43
2023-03-16T08:41:06.752Z,6.07
2023-03-16T08:43:34.728Z,6.97
2023-03-16T08:46:01.837Z,7.07
2023-03-16T08:48:40.361Z,6.00
2023-03-16T08:51:07.776Z,5.78
2023-03-16T08:56:04.856Z,6.35
2023-03-16T08:58:33.005Z,6.55
2023-03-16T09:01:00.924Z,6.78
2023-03-16T09:03:28.032Z,6.35
2023-03-16T09:06:01.592Z,5.63
2023-03-16T09:08:29.269Z,6.38
2023-03-16T09:11:03.713Z,6.38
2023-03-16T09:13:31.124Z,6.22
2023-03-16T09:18:26.207Z,5.30
2023-03-16T09:21:00.695Z,5.30
2023-03-16T09:23:27.690Z,5.38
2023-03-16T09:25:57.861Z,5.63
2023-03-16T09:28:25.215Z,5.60
2023-03-16T09:33:18.837Z,4.97
2023-03-16T09:35:46.220Z,5.13
2023-03-16T09:40:41.496Z,5.18
2023-03-16T09:43:33.526Z,4.70
2023-03-16T09:46:15.183Z,4.22
2023-03-16T09:48:42.401Z,4.85
2023-03-16T09:51:36.939Z,4.72
2023-03-16T09:54:14.832Z,5.65
2023-03-16T09:59:15.351Z,4.18
2023-03-16T10:02:10.915Z,4.78
2023-03-16T10:05:09.535Z,4.00
2023-03-16T10:08:01.476Z,3.90
2023-03-16T10:10:38.251Z,4.15
2023-03-16T10:13:17.852Z,3.92
2023-03-16T10:15:46.274Z,3.30
2023-03-16T10:18:20.428Z,3.83
2023-03-16T10:20:48.023Z,3.42
2023-03-16T10:23:21.293Z,3.42
2023-03-16T10:25:50.633Z,4.20
2023-03-16T10:28:23.883Z,3.25
2023-03-16T10:30:53.069Z,2.75
2023-03-16T10:33:28.523Z,2.95
2023-03-16T10:36:05.487Z,2.70
2023-03-16T10:38:50.661Z,2.57
2023-03-16T10:41:23.042Z,3.63
2023-03-16T10:43:55.560Z,2.47
2023-03-16T10:46:23.704Z,2.17
2023-03-16T10:49:27.543Z,2.03
2023-03-16T10:51:59.375Z,1.98
2023-03-16T10:54:31.657Z,1.70
2023-03-16T10:57:00.392Z,1.70
2023-03-16T10:59:29.532Z,1.60
2023-03-16T11:01:57.054Z,1.67
2023-03-16T11:04:24.437Z,1.95
2023-03-16T11:09:33.983Z,1.52
2023-03-16T11:12:13.127Z,1.67
2023-03-16T11:14:44.874Z,1.30
2023-03-16T11:17:39.765Z,1.30
2023-03-16T11:20:14.721Z,1.60
2023-03-16T11:22:45.548Z,1.42
2023-03-16T11:25:46.867Z,1.23
2023-03-16T11:28:19.887Z,1.23
2023-03-16T11:30:46.508Z,1.38
2023-03-16T11:33:15.360Z,1.15
2023-03-16T11:36:12.194Z,1.33
2023-03-16T11:39:06.007Z,1.13
2023-03-16T11:41:56.455Z,1.17
2023-03-16T11:44:41.926Z,1.20
2023-03-16T11:47:24.376Z,1.30
2023-03-16T11:50:14.755Z,1.42
2023-03-16T11:53:04.930Z,1.50
2023-03-16T11:55:41.210Z,1.55
2023-03-16T11:58:19.945Z,1.85
2023-03-16T12:01:00.274Z,1.52
2023-03-16T12:03:45.907Z,1.63
2023-03-16T12:06:24.439Z,1.38
2023-03-16T12:09:18.104Z,1.48
2023-03-16T12:12:02.735Z,1.00
2023-03-16T12:15:14.452Z,0.90
2023-03-16T12:17:43.815Z,1.33
2023-03-16T12:20:19.672Z,1.30
2023-03-16T12:22:55.504Z,1.40
2023-03-16T12:25:26.653Z,1.27
2023-03-16T12:27:56.823Z,1.20
2023-03-16T12:30:36.150Z,0.90
2023-03-16T12:33:34.261Z,1.00
2023-03-16T12:36:18.988Z,0.85
2023-03-16T12:38:50.179Z,0.93
2023-03-16T12:41:54.072Z,0.70
2023-03-16T12:44:32.378Z,0.80
2023-03-16T12:47:19.753Z,0.75
2023-03-16T12:49:46.748Z,0.70
2023-03-16T12:52:14.608Z,0.75
2023-03-16T12:55:07.101Z,0.88
2023-03-16T12:57:33.804Z,1.00
2023-03-16T13:00:01.518Z,0.90
2023-03-16T13:02:38.063Z,0.82
2023-03-16T13:05:09.494Z,1.00
2023-03-16T13:07:38.899Z,1.23
2023-03-16T13:10:13.708Z,1.45
2023-03-16T13:12:41.851Z,1.08
2023-03-16T13:15:17.681Z,0.88
2023-03-16T13:17:44.442Z,0.90
2023-03-16T13:20:29.271Z,0.95
2023-03-16T13:23:18.885Z,1.20
2023-03-16T13:26:03.229Z,1.10
2023-03-16T13:28:33.494Z,1.27
2023-03-16T13:31:01.176Z,1.48
2023-03-16T13:33:31.263Z,0.98
2023-03-16T13:35:59.857Z,1.02
2023-03-16T13:38:28.542Z,0.93
2023-03-16T13:41:08.998Z,1.05
2023-03-16T13:43:41.599Z,1.25
2023-03-16T13:46:21.251Z,0.98
2023-03-16T13:48:48.971Z,1.55
2023-03-16T13:51:20.957Z,1.20
2023-03-16T13:53:49.225Z,1.10
2023-03-16T13:56:18.684Z,1.42
2023-03-16T13:58:51.328Z,1.20
2023-03-16T14:01:27.258Z,1.48
2023-03-16T14:03:58.249Z,1.35
2023-03-16T14:06:31.219Z,1.70
2023-03-16T14:09:01.282Z,1.60
2023-03-16T14:11:28.520Z,1.52
2023-03-16T14:13:57.710Z,1.40
2023-03-16T14:16:28.020Z,1.80
2023-03-16T14:19:02.650Z,1.52
2023-03-16T14:21:32.023Z,1.42
2023-03-16T14:24:07.114Z,1.60
2023-03-16T14:26:41.988Z,2.22
2023-03-16T14:29:34.751Z,2.13
2023-03-16T14:32:01.502Z,2.15
2023-03-16T14:34:30.802Z,2.08
2023-03-16T14:37:09.718Z,2.08
2023-03-16T14:39:37.411Z,1.90
2023-03-16T14:42:05.309Z,2.00
2023-03-16T14:44:34.718Z,2.00
2023-03-16T14:47:04.291Z,2.20
2023-03-16T14:49:37.287Z,2.05
2023-03-16T14:52:09.297Z,1.98
2023-03-16T14:54:36.582Z,2.25
2023-03-16T14:59:33.437Z,2.22
2023-03-16T15:02:01.555Z,2.50
2023-03-16T15:04:34.412Z,2.40
2023-03-16T15:07:06.968Z,2.50
2023-03-16T15:09:37.124Z,2.75
2023-03-16T15:12:04.504Z,3.17
2023-03-16T15:17:16.739Z,2.95
2023-03-16T15:19:43.613Z,2.58
2023-03-16T15:22:12.649Z,2.75
2023-03-16T15:24:39.815Z,2.42
2023-03-16T15:27:19.895Z,2.70
2023-03-16T15:29:46.654Z,2.92
2023-03-16T15:32:15.773Z,3.10
2023-03-16T15:34:44.436Z,3.30
2023-03-16T15:37:17.150Z,3.40
2023-03-16T15:39:46.694Z,2.85
2023-03-16T15:42:16.025Z,2.90
2023-03-16T15:44:43.432Z,2.97
2023-03-16T15:49:47.133Z,2.70
2023-03-16T15:52:26.632Z,2.63
2023-03-16T15:54:53.522Z,2.63
2023-03-16T15:57:20.876Z,2.53
2023-03-16T16:02:29.962Z,2.63
2023-03-16T16:04:57.312Z,2.40
2023-03-16T16:09:51.193Z,2.00
2023-03-16T16:12:19.584Z,2.38
2023-03-16T16:14:47.154Z,1.85
2023-03-16T16:17:29.520Z,2.13
2023-03-16T16:20:17.514Z,2.90
2023-03-16T16:22:45.047Z,2.20
2023-03-16T16:25:13.712Z,1.42
2023-03-16T16:27:40.781Z,1.83
2023-03-16T16:30:24.114Z,1.80
2023-03-16T16:32:51.404Z,1.60
2023-03-16T16:37:47.370Z,1.27
2023-03-16T16:40:20.539Z,1.60
2023-03-16T16:42:48.545Z,1.45
2023-03-16T16:45:23.650Z,2.70
2023-03-16T16:47:53.282Z,4.15
2023-03-16T16:50:26.119Z,3.17
2023-03-16T16:52:54.191Z,3.10
2023-03-16T16:55:24.894Z,4.30
2023-03-16T16:57:54.710Z,2.22
2023-03-16T17:00:23.839Z,1.33
2023-03-16T17:02:53.582Z,1.42
2023-03-16T17:05:25.961Z,1.73
2023-03-16T17:07:53.290Z,2.25
2023-03-16T17:12:49.749Z,3.08
2023-03-16T17:15:23.623Z,4.00
2023-03-16T17:17:52.566Z,5.28
2023-03-16T17:20:21.323Z,6.13
2023-03-16T17:22:48.605Z,3.42
2023-03-16T17:27:47.178Z,2.63
2023-03-16T17:30:28.741Z,2.50
2023-03-16T17:33:19.296Z,3.13
2023-03-16T17:35:47.559Z,4.70
2023-03-16T17:38:24.949Z,3.75
2023-03-16T17:40:52.945Z,2.72
2023-03-16T17:43:23.059Z,2.33
2023-03-16T17:45:51.663Z,3.90
2023-03-16T17:48:21.029Z,2.50
2023-03-16T17:50:48.595Z,2.00
2023-03-16T17:53:17.075Z,0.90
2023-03-16T17:55:45.445Z,1.85
2023-03-16T17:58:28.942Z,2.30
2023-03-16T18:00:56.401Z,1.80
2023-03-16T18:03:27.213Z,1.50
2023-03-16T18:05:55.303Z,1.83
2023-03-16T18:08:27.898Z,1.73
2023-03-16T18:11:03.084Z,1.30
2023-03-16T18:13:35.977Z,1.52
2023-03-16T18:16:05.679Z,4.75
2023-03-16T18:18:42.812Z,18.17
2023-03-16T18:21:18.316Z,17.67
2023-03-16T18:23:45.147Z,4.75
2023-03-16T18:26:12.120Z,4.03
2023-03-16T18:28:38.853Z,1.90
2023-03-16T18:31:07.716Z,36.75
2023-03-16T18:33:37.166Z,4.50
2023-03-16T18:36:07.787Z,3.60
2023-03-16T18:38:40.284Z,3.60
2023-03-16T18:41:28.444Z,2.40
2023-03-16T18:43:57.923Z,3.30
2023-03-16T18:46:30.389Z,4.05
2023-03-16T18:49:18.310Z,3.22
2023-03-16T18:51:48.897Z,3.10
2023-03-16T18:54:30.587Z,2.35
2023-03-16T18:57:01.055Z,2.60
2023-03-16T18:59:27.765Z,3.13
2023-03-16T19:01:54.573Z,3.25
2023-03-16T19:04:27.393Z,3.72
2023-03-16T19:06:55.958Z,4.22
2023-03-16T19:09:34.749Z,4.05
2023-03-16T19:12:03.510Z,3.50
2023-03-16T19:14:34.870Z,5.47
2023-03-16T19:17:01.768Z,10.73
2023-03-16T19:19:28.511Z,5.97
2023-03-16T19:21:58.748Z,4.72
2023-03-16T19:24:33.663Z,4.15
2023-03-16T19:27:01.525Z,3.88
2023-03-16T19:29:34.279Z,3.63
2023-03-16T19:32:01.746Z,4.40
2023-03-16T19:34:28.831Z,3.45
2023-03-16T19:36:55.526Z,2.10
2023-03-16T19:39:22.243Z,1.17
2023-03-16T19:41:55.120Z,4.60
2023-03-16T19:44:25.298Z,3.58
2023-03-16T19:46:52.409Z,3.80
2023-03-16T19:49:21.746Z,4.13
2023-03-16T19:51:53.085Z,4.40
2023-03-16T19:54:28.699Z,7.63
2023-03-16T19:56:57.903Z,3.63
2023-03-16T19:59:29.732Z,4.05
2023-03-16T20:01:56.776Z,3.60
2023-03-16T20:04:25.786Z,5.32
2023-03-16T20:06:54.019Z,5.18
2023-03-16T20:09:22.115Z,4.30
2023-03-16T20:11:49.496Z,2.72
2023-03-16T20:16:48.031Z,2.30
2023-03-16T20:19:15.986Z,3.00
2023-03-16T20:21:42.855Z,2.40
2023-03-16T20:24:18.087Z,2.60
2023-03-16T20:26:46.601Z,1.42
2023-03-16T20:29:33.017Z,2.10
2023-03-16T20:32:01.208Z,1.80
2023-03-16T20:34:31.119Z,1.65
2023-03-16T20:36:58.468Z,1.88
2023-03-16T20:41:52.543Z,1.30
2023-03-16T20:44:21.233Z,1.30
2023-03-16T20:46:48.100Z,1.60
2023-03-16T20:49:25.164Z,1.30
2023-03-16T20:51:52.262Z,1.40
2023-03-16T20:54:19.193Z,2.15
2023-03-16T20:56:46.742Z,7.65
2023-03-16T20:59:24.735Z,3.83
2023-03-16T21:01:54.495Z,2.72
2023-03-16T21:04:24.275Z,2.00
2023-03-16T21:06:51.381Z,1.55
2023-03-16T21:09:19.878Z,1.63
2023-03-16T21:11:47.608Z,2.00
2023-03-16T21:14:23.285Z,2.20
2023-03-16T21:16:50.871Z,1.95
2023-03-16T21:19:21.536Z,2.15
2023-03-16T21:21:48.474Z,2.10
2023-03-16T21:24:15.333Z,3.88
2023-03-16T21:26:43.769Z,3.22
2023-03-16T21:29:16.052Z,3.88
2023-03-16T21:31:43.124Z,2.90
2023-03-16T21:34:26.458Z,2.72
2023-03-16T21:36:53.404Z,2.70
2023-03-16T21:39:22.513Z,2.38
2023-03-16T21:41:50.586Z,3.33
2023-03-16T21:44:18.355Z,3.22
2023-03-16T21:46:47.142Z,3.30
2023-03-16T21:49:15.761Z,3.55
2023-03-16T21:51:43.154Z,2.90
2023-03-16T21:54:16.797Z,2.92
2023-03-16T21:56:44.378Z,3.63
2023-03-16T21:59:11.502Z,3.60
2023-03-16T22:01:47.707Z,3.17
2023-03-16T22:04:25.253Z,3.28
2023-03-16T22:06:52.328Z,2.95
2023-03-16T22:13:12.481Z,3.63
2023-03-16T22:15:41.373Z,4.07
2023-03-16T22:18:19.328Z,3.17
2023-03-16T22:23:28.687Z,4.20
2023-03-16T22:25:56.026Z,3.78
2023-03-16T22:30:49.388Z,3.50
2023-03-16T22:33:24.419Z,2.05
2023-03-16T22:35:51.978Z,3.45
2023-03-16T22:38:19.146Z,3.35
2023-03-16T22:40:45.895Z,3.33
2023-03-16T22:43:17.253Z,2.80
2023-03-16T22:45:44.369Z,2.47
2023-03-16T22:48:23.966Z,2.83
2023-03-16T22:50:51.208Z,2.42
2023-03-16T22:53:32.856Z,2.53
2023-03-16T22:56:00.262Z,2.78
2023-03-16T22:58:34.761Z,2.70
2023-03-16T23:01:17.732Z,2.45
2023-03-16T23:03:46.391Z,2.40
2023-03-16T23:06:24.628Z,2.30
2023-03-16T23:08:52.073Z,2.58
2023-03-16T23:13:54.611Z,3.15
2023-03-16T23:16:25.862Z,3.53
2023-03-16T23:18:53.169Z,4.00
2023-03-16T23:21:22.620Z,4.53
2023-03-16T23:24:02.691Z,3.25
2023-03-16T23:26:30.787Z,2.58
2023-03-16T23:28:57.945Z,2.63
2023-03-16T23:31:26.101Z,2.42
2023-03-16T23:33:52.798Z,3.03
2023-03-16T23:36:24.612Z,2.28
2023-03-16T23:38:51.583Z,2.50
2023-03-16T23:41:21.797Z,2.10
2023-03-16T23:43:50.645Z,2.40
2023-03-16T23:46:19.944Z,1.77
2023-03-16T23:48:49.083Z,2.30
2023-03-16T23:51:28.830Z,2.78
2023-03-16T23:53:56.191Z,2.85
2023-03-16T23:58:50.983Z,2.75
